.
WxDataArchive / Data Records for 2007-08-03
2007-08-02 August 2007 2007-08-04

Data Records for Friday, 03 August 2007

Time	Temp	Chill	HIndex	Humid	Dewpt	 Wind 	HiWind	WindDir	Rain 	Barom 
-----	----	-----	------	-----	-----	------	------	-------	-----	----- 
00:00	72.7	72.7	72.7	80	66.2	0	0	---	0.00	29.902 
00:05	72.5	72.5	72.5	81	66.3	0	0	---	0.00	29.900 
00:10	72.3	72.3	72.3	81	66.1	0	0	---	0.00	29.899 
00:15	72.3	72.3	72.3	81	66.1	0	0	---	0.00	29.900 
00:20	72.0	72.0	72.0	82	66.2	0	0	---	0.00	29.900 
00:25	71.8	71.8	71.8	83	66.3	0	0	---	0.00	29.901 
00:30	71.6	71.6	71.6	83	66.2	0	0	---	0.00	29.903 
00:35	71.5	71.5	71.5	84	66.4	0	0	---	0.00	29.902 
00:40	71.3	71.3	71.3	84	66.2	0	0	---	0.00	29.904 
00:45	71.3	71.3	71.3	85	66.5	0	0	---	0.00	29.903 
00:50	71.1	71.1	71.1	85	66.4	0	0	---	0.00	29.903 
00:55	70.9	70.9	70.9	85	66.2	0	0	---	0.00	29.903 
01:00	70.8	70.8	70.8	86	66.4	0	0	---	0.00	29.901 
01:05	70.6	70.6	70.6	86	66.2	0	0	---	0.00	29.903 
01:10	70.4	70.4	70.4	87	66.3	0	0	---	0.00	29.904 
01:15	70.3	70.3	70.3	88	66.6	0	0	---	0.00	29.905 
01:20	70.3	70.3	70.3	88	66.6	0	0	---	0.00	29.903 
01:25	70.1	70.1	70.1	88	66.4	0	0	---	0.00	29.903 
01:30	69.9	69.9	69.9	89	66.5	0	0	---	0.00	29.902 
01:35	69.8	69.8	69.8	89	66.4	0	0	---	0.00	29.901 
01:40	69.8	69.8	69.8	90	66.7	0	0	---	0.00	29.901 
01:45	69.8	69.8	69.8	90	66.7	0	0	---	0.00	29.902 
01:50	69.6	69.6	69.6	90	66.5	0	0	---	0.00	29.901 
01:55	69.6	69.6	69.6	90	66.5	0	0	---	0.00	29.901 
02:00	69.4	69.4	69.4	90	66.3	0	0	---	0.00	29.903 
02:05	69.6	69.6	69.6	91	66.8	0	0	---	0.00	29.900 
02:10	69.6	69.6	69.6	91	66.8	0	0	---	0.00	29.900 
02:15	69.6	69.6	69.6	91	66.8	0	0	---	0.00	29.900 
02:20	69.6	69.6	69.6	91	66.8	0	0	---	0.00	29.900 
02:25	69.8	69.8	69.8	91	67.0	0	0	---	0.00	29.900 
02:30	69.8	69.8	69.8	91	67.0	0	0	---	0.00	29.900 
02:35	69.9	69.9	69.9	90	66.8	0	0	---	0.00	29.900 
02:40	70.1	70.1	70.1	90	67.0	0	0	---	0.00	29.900 
02:45	70.1	70.1	70.1	90	67.0	0	0	---	0.00	29.899 
02:50	70.1	70.1	70.1	90	67.0	0	0	---	0.00	29.900 
02:55	70.1	70.1	70.1	89	66.7	0	0	---	0.00	29.900 
03:00	69.9	69.9	69.9	89	66.5	0	0	---	0.00	29.901 
03:05	69.9	69.9	69.9	90	66.8	0	0	---	0.00	29.901 
03:10	69.9	69.9	69.9	90	66.8	0	0	---	0.00	29.901 
03:15	69.8	69.8	69.8	90	66.7	0	0	---	0.00	29.901 
03:20	69.6	69.6	69.6	90	66.5	0	1	292	0.00	29.903 
03:25	69.6	69.6	69.6	90	66.5	0	0	---	0.00	29.903 
03:30	69.6	69.6	69.6	91	66.8	0	0	---	0.00	29.904 
03:35	69.6	69.6	69.6	91	66.8	0	0	---	0.00	29.905 
03:40	69.8	69.8	69.8	91	67.0	0	0	---	0.00	29.904 
03:45	69.9	69.9	69.9	91	67.1	0	0	---	0.00	29.904 
03:50	69.9	69.9	69.9	90	66.8	0	0	---	0.00	29.902 
03:55	69.9	69.9	69.9	90	66.8	0	0	---	0.00	29.901 
04:00	69.9	69.9	69.9	90	66.8	0	0	---	0.00	29.903 
04:05	69.9	69.9	69.9	90	66.8	0	0	---	0.00	29.905 
04:10	70.3	70.3	70.3	90	67.2	0	1	292	0.00	29.905 
04:15	70.3	70.3	70.3	90	67.2	0	1	292	0.00	29.904 
04:20	70.3	70.3	70.3	90	67.2	0	1	292	0.00	29.904 
04:25	70.3	70.3	70.3	90	67.2	0	0	---	0.00	29.906 
04:30	70.3	70.3	70.3	90	67.2	0	1	292	0.00	29.907 
04:35	70.4	70.4	70.4	90	67.3	0	1	292	0.00	29.906 
04:40	70.6	70.6	70.6	89	67.2	0	1	292	0.00	29.909 
04:45	70.6	70.6	70.6	89	67.2	0	0	---	0.00	29.910 
04:50	70.6	70.6	70.6	89	67.2	0	0	---	0.00	29.911 
04:55	70.4	70.4	70.4	89	67.0	0	0	---	0.00	29.911 
05:00	70.4	70.4	70.4	89	67.0	0	0	---	0.00	29.912 
05:05	70.3	70.3	70.3	89	66.9	0	0	---	0.00	29.913 
05:10	70.3	70.3	70.3	90	67.2	0	0	---	0.00	29.914 
05:15	70.1	70.1	70.1	90	67.0	0	0	---	0.00	29.912 
05:20	69.9	69.9	69.9	90	66.8	0	0	---	0.00	29.911 
05:25	69.8	69.8	69.8	91	67.0	0	0	---	0.00	29.910 
05:30	69.8	69.8	69.8	91	67.0	0	0	---	0.00	29.911 
05:35	69.6	69.6	69.6	91	66.8	0	0	---	0.00	29.913 
05:40	69.8	69.8	69.8	92	67.4	0	0	---	0.00	29.916 
05:45	69.9	69.9	69.9	92	67.5	0	0	---	0.00	29.918 
05:50	69.9	69.9	69.9	91	67.1	0	0	---	0.00	29.918 
05:55	69.9	69.9	69.9	91	67.1	0	1	292	0.00	29.919 
06:00	70.1	70.1	70.1	91	67.3	0	0	---	0.00	29.920 
06:05	70.3	70.3	70.3	91	67.5	0	1	292	0.00	29.925 
06:10	70.3	70.3	70.3	91	67.5	0	1	292	0.00	29.926 
06:15	70.4	70.4	70.4	91	67.6	0	1	292	0.00	29.927 
06:20	70.6	70.6	70.6	90	67.5	0	1	292	0.00	29.926 
06:25	70.9	70.9	70.9	90	67.8	0	2	292	0.00	29.927 
06:30	71.1	71.1	71.1	89	67.7	0	1	292	0.00	29.927 
06:35	71.3	71.3	71.3	89	67.9	0	2	292	0.00	29.927 
06:40	71.6	71.6	71.6	88	67.8	0	1	292	0.00	29.927 
06:45	71.8	71.8	71.8	88	68.0	0	1	292	0.00	29.928 
06:50	72.1	72.1	72.1	87	68.0	0	1	292	0.00	29.928 
06:55	72.5	72.5	72.5	87	68.4	0	1	292	0.00	29.928 
07:00	72.8	72.8	72.8	85	68.0	0	1	292	0.00	29.927 
07:05	73.2	73.2	73.2	85	68.4	0	1	292	0.00	29.931 
07:10	73.5	73.5	73.5	84	68.4	0	1	292	0.00	29.931 
07:15	73.7	73.7	73.7	83	68.2	0	1	292	0.00	29.932 
07:20	74.0	74.0	74.0	83	68.5	0	1	292	0.00	29.933 
07:25	74.4	74.4	74.4	82	68.5	0	1	292	0.00	29.933 
07:30	74.7	74.7	74.7	81	68.5	0	2	248	0.00	29.932 
07:35	75.3	75.3	75.9	81	69.1	0	1	248	0.00	29.933 
07:40	75.6	75.6	76.4	80	69.0	0	1	248	0.00	29.934 
07:45	75.8	75.8	76.8	79	68.8	0	2	248	0.00	29.936 
07:50	76.1	76.1	77.3	78	68.7	1	2	248	0.00	29.940 
07:55	76.5	76.5	77.9	78	69.1	0	1	248	0.00	29.943 
08:00	76.7	76.7	78.2	77	68.9	0	1	248	0.00	29.941 
08:05	77.2	77.2	79.0	77	69.4	0	1	248	0.00	29.945 
08:10	77.4	77.4	79.3	76	69.2	0	1	248	0.00	29.947 
08:15	77.6	77.6	79.6	75	69.0	0	2	248	0.00	29.946 
08:20	77.7	77.7	79.7	76	69.5	0	2	248	0.00	29.946 
08:25	77.9	77.9	80.0	74	68.9	1	2	270	0.00	29.946 
08:30	78.1	78.1	80.3	75	69.5	0	2	270	0.00	29.946 
08:35	78.5	78.5	80.9	73	69.1	1	2	270	0.00	29.947 
08:40	78.6	78.6	81.0	73	69.2	1	2	270	0.00	29.947 
08:45	78.8	78.8	81.3	73	69.4	1	2	270	0.00	29.947 
08:50	79.0	79.0	81.6	72	69.2	1	2	270	0.00	29.948 
08:55	79.0	79.0	81.6	73	69.6	0	1	292	0.00	29.949 
09:00	79.4	79.4	82.2	72	69.6	0	2	292	0.00	29.948 
09:05	79.9	79.9	83.1	73	70.4	0	1	292	0.00	29.949 
09:10	80.3	80.3	83.6	71	70.0	0	1	292	0.00	29.948 
09:15	80.3	80.3	83.2	68	68.8	0	1	292	0.00	29.947 
09:20	80.5	80.5	83.8	70	69.8	0	1	292	0.00	29.947 
09:25	80.9	80.9	84.5	70	70.2	0	1	292	0.00	29.947 
09:30	81.4	81.4	85.0	68	69.8	0	1	292	0.00	29.948 
09:35	81.8	81.8	85.5	67	69.7	0	1	292	0.00	29.946 
09:40	82.4	82.4	85.8	64	69.0	0	2	292	0.00	29.946 
09:45	82.6	82.6	86.2	64	69.2	0	2	292	0.00	29.948 
09:50	82.8	82.8	86.5	64	69.3	1	2	292	0.00	29.948 
09:55	83.2	83.2	87.5	65	70.2	0	2	292	0.00	29.949 
10:00	83.6	83.6	87.1	61	68.7	1	3	292	0.00	29.949 
10:05	84.0	84.0	87.8	61	69.1	0	3	270	0.00	29.950 
10:10	84.0	84.0	87.0	58	67.6	1	4	270	0.00	29.955 
10:15	84.1	84.1	87.2	58	67.7	1	2	248	0.00	29.955 
10:20	84.1	84.1	87.4	59	68.2	0	2	315	0.00	29.954 
10:25	84.3	84.3	87.5	58	67.9	0	2	315	0.00	29.953 
10:30	84.7	84.7	87.6	56	67.2	1	2	315	0.00	29.950 
10:35	85.1	85.1	88.5	57	68.1	1	2	248	0.00	29.953 
10:40	85.5	85.5	89.2	57	68.5	1	2	248	0.00	29.949 
10:45	85.9	85.9	90.2	58	69.4	1	2	248	0.00	29.951 
10:50	85.9	85.9	89.9	57	68.9	1	3	315	0.00	29.953 
10:55	85.7	85.7	89.2	56	68.2	1	3	292	0.00	29.954 
11:00	85.7	85.7	89.5	57	68.7	1	2	270	0.00	29.952 
11:05	85.9	85.9	89.9	57	68.9	1	3	270	0.00	29.952 
11:10	86.3	86.3	90.9	58	69.7	1	3	248	0.00	29.951 
11:15	87.0	87.0	91.9	57	69.9	1	2	135	0.00	29.949 
11:20	87.0	87.0	90.8	54	68.3	1	4	338	0.00	29.949 
11:25	87.0	87.0	91.9	57	69.9	1	3	270	0.00	29.947 
11:30	87.0	87.0	91.1	55	68.8	1	3	248	0.00	29.947 
11:35	86.5	86.5	90.6	56	68.9	1	5	248	0.00	29.944 
11:40	86.1	86.1	90.2	57	69.1	0	2	315	0.00	29.946 
11:45	86.3	86.3	90.6	57	69.2	1	3	315	0.00	29.946 
11:50	86.1	86.1	90.6	58	69.6	1	3	0	0.00	29.946 
11:55	86.3	86.3	91.7	60	70.7	0	2	0	0.00	29.947 
12:00	86.3	86.3	90.9	58	69.7	0	2	0	0.00	29.946 
12:05	86.7	86.7	91.0	56	69.1	1	2	292	0.00	29.945 
12:10	86.7	86.7	90.3	54	68.0	2	4	270	0.00	29.946 
12:15	87.0	87.0	91.1	55	68.8	1	3	315	0.00	29.945 
12:20	87.0	87.0	91.1	55	68.8	1	3	315	0.00	29.944 
12:25	87.2	87.2	91.5	55	69.0	2	4	315	0.00	29.944 
12:30	87.6	87.6	92.6	56	69.9	1	3	270	0.00	29.943 
12:35	88.0	88.0	91.8	52	68.1	0	2	270	0.00	29.942 
12:40	88.0	88.0	92.6	54	69.2	1	4	315	0.00	29.942 
12:45	88.4	88.4	92.5	52	68.5	1	3	270	0.00	29.938 
12:50	88.6	88.6	91.7	49	67.0	1	3	248	0.00	29.935 
12:55	88.4	88.4	91.7	50	67.4	1	2	315	0.00	29.937 
13:00	88.4	88.4	92.1	51	67.9	1	4	315	0.00	29.935 
13:05	89.0	89.0	93.6	52	69.0	2	4	315	0.00	29.934 
13:10	89.0	89.0	94.0	53	69.6	2	3	270	0.00	29.934 
13:15	89.0	89.0	93.2	51	68.5	1	5	292	0.00	29.933 
13:20	88.8	88.8	92.0	49	67.1	2	4	270	0.00	29.931 
13:25	88.4	88.4	91.3	49	66.8	1	3	292	0.00	29.931 
13:30	88.6	88.6	91.7	49	67.0	1	4	292	0.00	29.931 
13:35	88.6	88.6	91.3	48	66.4	1	4	248	0.00	29.930 
13:40	89.3	89.3	92.1	47	66.4	2	4	270	0.00	29.930 
13:45	89.7	89.7	92.8	47	66.7	1	5	270	0.00	29.929 
13:50	89.9	89.9	94.0	49	68.1	1	3	315	0.00	29.929 
13:55	89.9	89.9	93.5	48	67.5	1	3	315	0.00	29.928 
14:00	90.1	90.1	93.1	46	66.5	1	3	292	0.00	29.928 
14:05	89.9	89.9	93.5	48	67.5	1	3	292	0.00	29.926 
14:10	90.1	90.1	93.5	47	67.1	1	3	292	0.00	29.927 
14:15	89.5	89.5	92.4	47	66.6	1	5	270	0.00	29.924 
14:20	89.0	89.0	90.9	45	64.9	1	3	315	0.00	29.922 
14:25	89.0	89.0	91.6	47	66.1	0	2	315	0.00	29.921 
14:30	89.0	89.0	90.9	45	64.9	1	4	338	0.00	29.922 
14:35	89.3	89.3	91.0	44	64.5	2	4	292	0.00	29.921 
14:40	89.3	89.3	91.7	46	65.8	2	4	315	0.00	29.920 
14:45	89.5	89.5	91.0	43	64.0	2	5	315	0.00	29.921 
14:50	89.9	89.9	91.6	43	64.4	1	3	315	0.00	29.919 
14:55	89.9	89.9	90.9	41	63.0	1	3	292	0.00	29.918 
15:00	89.9	89.9	90.9	41	63.0	1	2	338	0.00	29.915 
15:05	89.9	89.9	90.2	39	61.6	2	6	292	0.00	29.916 
15:10	89.9	89.9	90.2	39	61.6	1	2	315	0.00	29.915 
15:15	89.9	89.9	89.3	36	59.3	2	4	315	0.00	29.915 
15:20	89.9	89.9	89.6	37	60.1	0	2	292	0.00	29.914 
15:25	89.9	89.9	89.6	37	60.1	1	3	292	0.00	29.914 
15:30	89.9	89.9	89.0	35	58.5	1	3	315	0.00	29.914 
15:35	89.9	89.9	90.2	39	61.6	1	3	315	0.00	29.914 
15:40	89.9	89.9	89.0	35	58.5	1	2	315	0.00	29.912 
15:45	89.7	89.7	89.3	37	59.9	1	4	338	0.00	29.914 
15:50	89.7	89.7	88.8	35	58.4	1	2	338	0.00	29.914 
15:55	89.7	89.7	89.0	36	59.2	0	3	338	0.00	29.913 
16:00	89.7	89.7	88.8	35	58.4	1	3	338	0.00	29.913 
16:05	89.3	89.3	88.5	36	58.8	1	3	315	0.00	29.912 
16:10	89.0	89.0	87.7	34	56.9	1	4	315	0.00	29.912 
16:15	89.3	89.3	88.0	34	57.2	1	3	292	0.00	29.911 
16:20	89.3	89.3	87.8	33	56.4	1	3	315	0.00	29.912 
16:25	89.3	89.3	88.3	35	58.0	0	2	315	0.00	29.909 
16:30	89.0	89.0	87.0	31	54.4	1	3	315	0.00	29.909 
16:35	89.0	89.0	86.8	30	53.5	1	4	315	0.00	29.910 
16:40	88.8	88.8	87.2	33	55.9	1	3	292	0.00	29.907 
16:45	89.0	89.0	86.4	28	51.6	1	4	315	0.00	29.909 
16:50	89.0	89.0	86.4	28	51.6	1	3	292	0.00	29.912 
16:55	89.0	89.0	86.3	27	50.6	1	4	338	0.00	29.911 
17:00	89.0	89.0	86.8	30	53.5	1	4	270	0.00	29.910 
17:05	88.8	88.8	87.4	34	56.8	1	3	270	0.00	29.908 
17:10	88.6	88.6	86.7	32	54.9	1	3	315	0.00	29.910 
17:15	88.4	88.4	86.7	33	55.6	1	3	315	0.00	29.909 
17:20	88.4	88.4	86.9	34	56.4	0	3	315	0.00	29.906 
17:25	88.2	88.2	86.7	34	56.2	1	2	292	0.00	29.905 
17:30	87.8	87.8	86.5	35	56.7	0	2	315	0.00	29.905 
17:35	87.8	87.8	86.5	35	56.7	0	2	315	0.00	29.904 
17:40	87.6	87.6	86.4	36	57.3	1	3	338	0.00	29.905 
17:45	87.6	87.6	86.2	35	56.5	0	3	315	0.00	29.904 
17:50	87.4	87.4	86.2	36	57.1	1	3	315	0.00	29.905 
17:55	87.4	87.4	86.4	37	57.9	1	3	315	0.00	29.906 
18:00	87.2	87.2	85.8	35	56.2	0	1	315	0.00	29.907 
18:05	87.2	87.2	85.8	35	56.2	1	3	315	0.00	29.908 
18:10	87.0	87.0	85.6	35	56.0	1	3	270	0.00	29.910 
18:15	86.7	86.7	85.4	36	56.5	1	2	338	0.00	29.910 
18:20	86.5	86.5	85.4	37	57.1	1	4	315	0.00	29.910 
18:25	86.3	86.3	85.0	36	56.2	1	3	315	0.00	29.912 
18:30	86.1	86.1	85.0	37	56.7	1	4	315	0.00	29.913 
18:35	85.9	85.9	84.9	38	57.3	1	6	292	0.00	29.914 
18:40	85.5	85.5	84.7	39	57.7	0	2	315	0.00	29.913 
18:45	85.1	85.1	83.9	37	55.9	1	3	292	0.00	29.916 
18:50	84.7	84.7	83.2	35	54.0	0	2	292	0.00	29.917 
18:55	84.3	84.3	82.7	34	52.8	0	2	292	0.00	29.918 
19:00	84.0	84.0	82.5	34	52.6	1	4	338	0.00	29.920 
19:05	83.6	83.6	82.2	35	53.0	0	2	315	0.00	29.919 
19:10	83.4	83.4	82.1	35	52.8	0	1	315	0.00	29.921 
19:15	83.2	83.2	81.9	35	52.7	0	1	315	0.00	29.918 
19:20	82.8	82.8	81.6	35	52.3	0	2	315	0.00	29.919 
19:25	82.4	82.4	81.4	37	53.5	0	1	315	0.00	29.929 
19:30	82.0	82.0	81.1	37	53.1	0	1	315	0.00	29.930 
19:35	81.8	81.8	81.0	37	53.0	0	1	315	0.00	29.931 
19:40	81.4	81.4	80.7	37	52.6	0	1	315	0.00	29.932 
19:45	81.1	81.1	80.5	38	53.1	0	0	---	0.00	29.933 
19:50	80.7	80.7	80.2	37	52.0	0	1	315	0.00	29.935 
19:55	80.3	80.3	79.8	36	50.9	0	1	315	0.00	29.939 
20:00	79.9	79.9	79.5	35	49.8	0	1	315	0.00	29.941 
20:05	79.8	79.8	79.5	36	50.4	0	1	315	0.00	29.942 
20:10	79.6	79.6	79.4	36	50.3	0	1	315	0.00	29.947 
20:15	79.2	79.2	79.3	38	51.4	0	1	315	0.00	29.949 
20:20	78.8	78.8	79.1	39	51.7	0	1	315	0.00	29.949 
20:25	78.6	78.6	79.0	40	52.2	0	1	315	0.00	29.949 
20:30	78.5	78.5	79.0	40	52.1	0	2	315	0.00	29.950 
20:35	78.1	78.1	78.9	42	53.1	0	1	315	0.00	29.951 
20:40	77.7	77.7	78.7	42	52.8	0	1	315	0.00	29.951 
20:45	77.4	77.4	78.6	43	53.1	0	0	---	0.00	29.953 
20:50	76.8	76.8	78.3	43	52.6	0	0	---	0.00	29.955 
20:55	76.5	76.5	78.2	44	52.9	0	0	---	0.00	29.961 
21:00	76.1	76.1	78.0	45	53.2	0	0	---	0.00	29.966 
21:05	75.8	75.8	77.9	46	53.5	0	0	---	0.00	29.963 
21:10	75.4	75.4	77.8	46	53.2	0	0	---	0.00	29.964 
21:15	75.1	75.1	77.7	47	53.5	0	1	315	0.00	29.967 
21:20	74.7	74.7	74.7	47	53.1	0	0	---	0.00	29.971 
21:25	74.6	74.6	74.6	48	53.6	0	1	315	0.00	29.974 
21:30	74.4	74.4	74.4	48	53.4	0	0	---	0.00	29.977 
21:35	74.2	74.2	74.2	49	53.8	0	0	---	0.00	29.977 
21:40	73.9	73.9	73.9	49	53.5	0	0	---	0.00	29.978 
21:45	73.7	73.7	73.7	49	53.3	0	0	---	0.00	29.978 
21:50	73.3	73.3	73.3	50	53.5	0	0	---	0.00	29.979 
21:55	73.0	73.0	73.0	50	53.2	0	1	315	0.00	29.980 
22:00	72.8	72.8	72.8	51	53.6	0	0	---	0.00	29.981 
22:05	72.3	72.3	72.3	52	53.7	0	0	---	0.00	29.978 
22:10	72.0	72.0	72.0	53	53.9	0	0	---	0.00	29.974 
22:15	71.8	71.8	71.8	52	53.2	0	0	---	0.00	29.976 
22:20	71.6	71.6	71.6	52	53.0	0	0	---	0.00	29.977 
22:25	71.5	71.5	71.5	52	52.9	0	0	---	0.00	29.975 
22:30	71.3	71.3	71.3	52	52.8	0	0	---	0.00	29.971 
22:35	70.9	70.9	70.9	53	52.9	0	0	---	0.00	29.972 
22:40	70.8	70.8	70.8	53	52.8	0	0	---	0.00	29.974 
22:45	70.6	70.6	70.6	54	53.1	0	0	---	0.00	29.976 
22:50	70.3	70.3	70.3	54	52.9	0	0	---	0.00	29.975 
22:55	69.9	69.9	69.9	54	52.5	0	0	---	0.00	29.977 
23:00	69.8	69.8	69.8	55	52.9	0	0	---	0.00	29.975 
23:05	69.6	69.6	69.6	55	52.7	0	0	---	0.00	29.976 
23:10	69.6	69.6	69.6	55	52.7	0	0	---	0.00	29.978 
23:15	69.3	69.3	69.3	55	52.4	0	0	---	0.00	29.981 
23:20	69.1	69.1	69.1	55	52.2	0	0	---	0.00	29.981 
23:25	69.1	69.1	69.1	55	52.2	0	0	---	0.00	29.978 
23:30	68.9	68.9	68.9	54	51.6	0	0	---	0.00	29.975 
23:35	68.9	68.9	68.9	54	51.6	0	0	---	0.00	29.976 
23:40	68.6	68.6	68.6	55	51.8	0	0	---	0.00	29.974 
23:45	68.6	68.6	68.6	57	52.7	0	0	---	0.00	29.979 
23:50	68.4	68.4	68.4	56	52.1	0	0	---	0.00	29.982 
23:55	68.1	68.1	68.1	57	52.3	0	0	---	0.00	29.983 

CoCoRaHS
IN-AL-39
A2 Web Hosting
Creative Commons License
GoDaddy
Look for:

loaded 2017-10-16 20:10:39 • last modified 2010-11-18 10:43:29
Privacy PolicyDisclaimer
• wx.awcolley.com is powered by PmWiki v.2002016 •
• all content (unless otherwise noted) © 2017 A W Colley